sensor_id;sensor_type;location;lat;lon;timestamp;P1;durP1;ratioP1;P2;durP2;ratioP2
58083;SDS011;43882;51.550;11.858;2023-07-22T00:00:53;19.65;;;8.45;;
58083;SDS011;43882;51.550;11.858;2023-07-22T00:03:19;18.05;;;8.40;;
58083;SDS011;43882;51.550;11.858;2023-07-22T00:05:45;18.30;;;8.05;;
58083;SDS011;43882;51.550;11.858;2023-07-22T00:08:11;18.92;;;8.45;;
58083;SDS011;43882;51.550;11.858;2023-07-22T00:10:41;18.30;;;8.07;;
58083;SDS011;43882;51.550;11.858;2023-07-22T00:13:08;17.17;;;7.82;;
58083;SDS011;43882;51.550;11.858;2023-07-22T00:15:34;17.55;;;8.00;;
58083;SDS011;43882;51.550;11.858;2023-07-22T00:18:00;17.63;;;7.90;;
58083;SDS011;43882;51.550;11.858;2023-07-22T00:20:26;16.98;;;7.63;;
58083;SDS011;43882;51.550;11.858;2023-07-22T00:22:52;17.75;;;7.97;;
58083;SDS011;43882;51.550;11.858;2023-07-22T00:25:18;18.50;;;8.30;;
58083;SDS011;43882;51.550;11.858;2023-07-22T00:27:44;17.80;;;8.05;;
58083;SDS011;43882;51.550;11.858;2023-07-22T00:30:10;17.90;;;7.90;;
58083;SDS011;43882;51.550;11.858;2023-07-22T00:32:37;19.40;;;9.40;;
58083;SDS011;43882;51.550;11.858;2023-07-22T00:35:05;20.23;;;8.70;;
58083;SDS011;43882;51.550;11.858;2023-07-22T00:37:32;18.40;;;8.73;;
58083;SDS011;43882;51.550;11.858;2023-07-22T00:39:58;18.83;;;8.35;;
58083;SDS011;43882;51.550;11.858;2023-07-22T00:42:26;20.08;;;8.65;;
58083;SDS011;43882;51.550;11.858;2023-07-22T00:44:52;18.90;;;8.65;;
58083;SDS011;43882;51.550;11.858;2023-07-22T00:47:18;19.52;;;8.50;;
58083;SDS011;43882;51.550;11.858;2023-07-22T00:49:47;18.30;;;8.65;;
58083;SDS011;43882;51.550;11.858;2023-07-22T00:52:14;18.73;;;8.60;;
58083;SDS011;43882;51.550;11.858;2023-07-22T00:54:41;20.48;;;8.50;;
58083;SDS011;43882;51.550;11.858;2023-07-22T00:57:07;19.58;;;8.77;;
58083;SDS011;43882;51.550;11.858;2023-07-22T00:59:35;19.25;;;9.15;;
58083;SDS011;43882;51.550;11.858;2023-07-22T01:02:01;20.10;;;9.32;;
58083;SDS011;43882;51.550;11.858;2023-07-22T01:04:27;20.83;;;9.20;;
58083;SDS011;43882;51.550;11.858;2023-07-22T01:06:53;19.42;;;8.65;;
58083;SDS011;43882;51.550;11.858;2023-07-22T01:09:20;20.65;;;9.27;;
58083;SDS011;43882;51.550;11.858;2023-07-22T01:11:46;17.65;;;8.55;;
58083;SDS011;43882;51.550;11.858;2023-07-22T01:14:13;18.73;;;9.13;;
58083;SDS011;43882;51.550;11.858;2023-07-22T01:16:39;18.25;;;8.38;;
58083;SDS011;43882;51.550;11.858;2023-07-22T01:19:05;19.05;;;9.20;;
58083;SDS011;43882;51.550;11.858;2023-07-22T01:21:33;18.77;;;9.15;;
58083;SDS011;43882;51.550;11.858;2023-07-22T01:23:59;19.17;;;9.52;;
58083;SDS011;43882;51.550;11.858;2023-07-22T01:26:26;20.13;;;9.07;;
58083;SDS011;43882;51.550;11.858;2023-07-22T01:29:01;19.23;;;9.15;;
58083;SDS011;43882;51.550;11.858;2023-07-22T01:31:27;20.27;;;10.05;;
58083;SDS011;43882;51.550;11.858;2023-07-22T01:33:54;19.25;;;9.05;;
58083;SDS011;43882;51.550;11.858;2023-07-22T01:36:20;20.48;;;10.05;;
58083;SDS011;43882;51.550;11.858;2023-07-22T01:38:46;19.75;;;9.20;;
58083;SDS011;43882;51.550;11.858;2023-07-22T01:41:12;18.88;;;9.70;;
58083;SDS011;43882;51.550;11.858;2023-07-22T01:43:38;20.15;;;9.50;;
58083;SDS011;43882;51.550;11.858;2023-07-22T01:46:04;19.40;;;9.52;;
58083;SDS011;43882;51.550;11.858;2023-07-22T01:48:30;19.10;;;8.70;;
58083;SDS011;43882;51.550;11.858;2023-07-22T01:50:57;19.27;;;8.25;;
58083;SDS011;43882;51.550;11.858;2023-07-22T01:53:23;19.90;;;9.45;;
58083;SDS011;43882;51.550;11.858;2023-07-22T01:55:49;19.33;;;8.73;;
58083;SDS011;43882;51.550;11.858;2023-07-22T01:58:15;18.80;;;9.02;;
58083;SDS011;43882;51.550;11.858;2023-07-22T02:00:41;19.23;;;9.02;;
58083;SDS011;43882;51.550;11.858;2023-07-22T02:03:07;19.52;;;9.05;;
58083;SDS011;43882;51.550;11.858;2023-07-22T02:05:33;19.27;;;9.60;;
58083;SDS011;43882;51.550;11.858;2023-07-22T02:08:00;21.17;;;9.18;;
58083;SDS011;43882;51.550;11.858;2023-07-22T02:10:26;19.77;;;9.63;;
58083;SDS011;43882;51.550;11.858;2023-07-22T02:12:52;20.38;;;9.85;;
58083;SDS011;43882;51.550;11.858;2023-07-22T02:15:18;20.77;;;10.45;;
58083;SDS011;43882;51.550;11.858;2023-07-22T02:17:47;19.38;;;8.95;;
58083;SDS011;43882;51.550;11.858;2023-07-22T02:20:13;20.77;;;9.93;;
58083;SDS011;43882;51.550;11.858;2023-07-22T02:22:39;20.92;;;10.27;;
58083;SDS011;43882;51.550;11.858;2023-07-22T02:25:05;21.67;;;10.23;;
58083;SDS011;43882;51.550;11.858;2023-07-22T02:27:32;20.65;;;10.88;;
58083;SDS011;43882;51.550;11.858;2023-07-22T02:29:58;21.63;;;10.35;;
58083;SDS011;43882;51.550;11.858;2023-07-22T02:32:24;21.85;;;10.98;;
58083;SDS011;43882;51.550;11.858;2023-07-22T02:34:50;23.65;;;11.15;;
58083;SDS011;43882;51.550;11.858;2023-07-22T02:37:16;23.90;;;11.13;;
58083;SDS011;43882;51.550;11.858;2023-07-22T02:39:42;23.30;;;12.65;;
58083;SDS011;43882;51.550;11.858;2023-07-22T02:42:08;23.45;;;12.18;;
58083;SDS011;43882;51.550;11.858;2023-07-22T02:44:34;24.73;;;12.43;;
58083;SDS011;43882;51.550;11.858;2023-07-22T02:47:00;22.45;;;11.50;;
58083;SDS011;43882;51.550;11.858;2023-07-22T02:49:27;22.92;;;11.88;;
58083;SDS011;43882;51.550;11.858;2023-07-22T02:51:53;24.40;;;12.35;;
58083;SDS011;43882;51.550;11.858;2023-07-22T02:54:19;23.65;;;11.60;;
58083;SDS011;43882;51.550;11.858;2023-07-22T02:56:45;23.58;;;12.18;;
58083;SDS011;43882;51.550;11.858;2023-07-22T02:59:12;23.40;;;12.20;;
58083;SDS011;43882;51.550;11.858;2023-07-22T03:01:38;24.42;;;12.50;;
58083;SDS011;43882;51.550;11.858;2023-07-22T03:04:04;24.55;;;12.13;;
58083;SDS011;43882;51.550;11.858;2023-07-22T03:06:30;23.67;;;12.27;;
58083;SDS011;43882;51.550;11.858;2023-07-22T03:08:56;23.95;;;12.05;;
58083;SDS011;43882;51.550;11.858;2023-07-22T03:11:23;25.40;;;13.43;;
58083;SDS011;43882;51.550;11.858;2023-07-22T03:13:50;23.17;;;11.98;;
58083;SDS011;43882;51.550;11.858;2023-07-22T03:16:16;23.45;;;12.25;;
58083;SDS011;43882;51.550;11.858;2023-07-22T03:18:42;23.75;;;11.75;;
58083;SDS011;43882;51.550;11.858;2023-07-22T03:21:09;22.15;;;11.50;;
58083;SDS011;43882;51.550;11.858;2023-07-22T03:23:35;24.83;;;11.68;;
58083;SDS011;43882;51.550;11.858;2023-07-22T03:26:01;23.60;;;11.73;;
58083;SDS011;43882;51.550;11.858;2023-07-22T03:28:27;24.42;;;12.30;;
58083;SDS011;43882;51.550;11.858;2023-07-22T03:30:53;23.00;;;11.32;;
58083;SDS011;43882;51.550;11.858;2023-07-22T03:33:20;23.80;;;12.52;;
58083;SDS011;43882;51.550;11.858;2023-07-22T03:35:46;24.85;;;12.13;;
58083;SDS011;43882;51.550;11.858;2023-07-22T03:38:12;24.48;;;11.75;;
58083;SDS011;43882;51.550;11.858;2023-07-22T03:40:38;23.17;;;11.95;;
58083;SDS011;43882;51.550;11.858;2023-07-22T03:43:04;25.98;;;11.95;;
58083;SDS011;43882;51.550;11.858;2023-07-22T03:45:30;23.48;;;11.68;;
58083;SDS011;43882;51.550;11.858;2023-07-22T03:47:57;22.65;;;11.57;;
58083;SDS011;43882;51.550;11.858;2023-07-22T03:50:24;23.30;;;11.77;;
58083;SDS011;43882;51.550;11.858;2023-07-22T03:52:50;24.73;;;12.18;;
58083;SDS011;43882;51.550;11.858;2023-07-22T03:55:17;25.95;;;12.15;;
58083;SDS011;43882;51.550;11.858;2023-07-22T03:57:44;23.55;;;11.95;;
58083;SDS011;43882;51.550;11.858;2023-07-22T04:00:10;22.83;;;11.30;;
58083;SDS011;43882;51.550;11.858;2023-07-22T04:02:37;25.67;;;12.43;;
58083;SDS011;43882;51.550;11.858;2023-07-22T04:05:04;22.63;;;11.27;;
58083;SDS011;43882;51.550;11.858;2023-07-22T04:07:30;22.88;;;11.52;;
58083;SDS011;43882;51.550;11.858;2023-07-22T04:09:56;23.35;;;10.65;;
58083;SDS011;43882;51.550;11.858;2023-07-22T04:12:22;23.67;;;11.93;;
58083;SDS011;43882;51.550;11.858;2023-07-22T04:14:49;24.25;;;12.43;;
58083;SDS011;43882;51.550;11.858;2023-07-22T04:17:15;25.17;;;12.48;;
58083;SDS011;43882;51.550;11.858;2023-07-22T04:19:41;24.33;;;12.18;;
58083;SDS011;43882;51.550;11.858;2023-07-22T04:22:11;24.63;;;12.77;;
58083;SDS011;43882;51.550;11.858;2023-07-22T04:24:37;24.67;;;11.65;;
58083;SDS011;43882;51.550;11.858;2023-07-22T04:27:03;22.48;;;11.20;;
58083;SDS011;43882;51.550;11.858;2023-07-22T04:29:29;23.38;;;12.35;;
58083;SDS011;43882;51.550;11.858;2023-07-22T04:31:59;24.23;;;11.57;;
58083;SDS011;43882;51.550;11.858;2023-07-22T04:34:29;23.27;;;11.52;;
58083;SDS011;43882;51.550;11.858;2023-07-22T04:36:56;23.65;;;12.63;;
58083;SDS011;43882;51.550;11.858;2023-07-22T04:39:22;25.60;;;11.80;;
58083;SDS011;43882;51.550;11.858;2023-07-22T04:41:48;23.70;;;11.55;;
58083;SDS011;43882;51.550;11.858;2023-07-22T04:44:14;25.42;;;13.45;;
58083;SDS011;43882;51.550;11.858;2023-07-22T04:46:42;24.48;;;11.95;;
58083;SDS011;43882;51.550;11.858;2023-07-22T04:49:08;26.23;;;13.40;;
58083;SDS011;43882;51.550;11.858;2023-07-22T04:51:34;24.90;;;12.02;;
58083;SDS011;43882;51.550;11.858;2023-07-22T04:54:00;24.88;;;12.02;;
58083;SDS011;43882;51.550;11.858;2023-07-22T04:56:27;26.13;;;12.38;;
58083;SDS011;43882;51.550;11.858;2023-07-22T04:58:53;27.75;;;12.55;;
58083;SDS011;43882;51.550;11.858;2023-07-22T05:01:19;24.80;;;11.63;;
58083;SDS011;43882;51.550;11.858;2023-07-22T05:03:45;25.02;;;12.35;;
58083;SDS011;43882;51.550;11.858;2023-07-22T05:06:11;25.63;;;12.73;;
58083;SDS011;43882;51.550;11.858;2023-07-22T05:08:38;23.35;;;11.15;;
58083;SDS011;43882;51.550;11.858;2023-07-22T05:11:04;24.15;;;11.27;;
58083;SDS011;43882;51.550;11.858;2023-07-22T05:13:31;22.23;;;10.98;;
58083;SDS011;43882;51.550;11.858;2023-07-22T05:15:57;24.42;;;10.48;;
58083;SDS011;43882;51.550;11.858;2023-07-22T05:18:23;24.67;;;11.43;;
58083;SDS011;43882;51.550;11.858;2023-07-22T05:20:49;23.20;;;9.90;;
58083;SDS011;43882;51.550;11.858;2023-07-22T05:23:15;21.08;;;10.25;;
58083;SDS011;43882;51.550;11.858;2023-07-22T05:25:41;22.50;;;9.95;;
58083;SDS011;43882;51.550;11.858;2023-07-22T05:28:08;23.85;;;10.85;;
58083;SDS011;43882;51.550;11.858;2023-07-22T05:30:34;23.05;;;10.48;;
58083;SDS011;43882;51.550;11.858;2023-07-22T05:33:00;22.77;;;10.30;;
58083;SDS011;43882;51.550;11.858;2023-07-22T05:35:26;21.58;;;9.43;;
58083;SDS011;43882;51.550;11.858;2023-07-22T05:37:52;22.95;;;9.70;;
58083;SDS011;43882;51.550;11.858;2023-07-22T05:40:18;21.45;;;8.95;;
58083;SDS011;43882;51.550;11.858;2023-07-22T05:42:44;20.75;;;8.80;;
58083;SDS011;43882;51.550;11.858;2023-07-22T05:45:10;24.17;;;8.85;;
58083;SDS011;43882;51.550;11.858;2023-07-22T05:47:40;21.77;;;9.60;;
58083;SDS011;43882;51.550;11.858;2023-07-22T05:50:06;20.27;;;8.65;;
58083;SDS011;43882;51.550;11.858;2023-07-22T05:52:32;20.88;;;8.30;;
58083;SDS011;43882;51.550;11.858;2023-07-22T05:54:58;22.90;;;9.25;;
58083;SDS011;43882;51.550;11.858;2023-07-22T05:57:25;20.35;;;7.93;;
58083;SDS011;43882;51.550;11.858;2023-07-22T05:59:51;20.17;;;7.15;;
58083;SDS011;43882;51.550;11.858;2023-07-22T06:02:17;20.60;;;8.07;;
58083;SDS011;43882;51.550;11.858;2023-07-22T06:04:44;20.58;;;8.50;;
58083;SDS011;43882;51.550;11.858;2023-07-22T06:07:10;22.65;;;7.95;;
58083;SDS011;43882;51.550;11.858;2023-07-22T06:09:36;20.88;;;7.82;;
58083;SDS011;43882;51.550;11.858;2023-07-22T06:12:02;19.75;;;7.90;;
58083;SDS011;43882;51.550;11.858;2023-07-22T06:14:28;19.50;;;7.22;;
58083;SDS011;43882;51.550;11.858;2023-07-22T06:16:54;19.30;;;7.65;;
58083;SDS011;43882;51.550;11.858;2023-07-22T06:19:20;19.27;;;7.40;;
58083;SDS011;43882;51.550;11.858;2023-07-22T06:21:48;20.67;;;7.00;;
58083;SDS011;43882;51.550;11.858;2023-07-22T06:24:14;19.67;;;7.15;;
58083;SDS011;43882;51.550;11.858;2023-07-22T06:26:41;19.63;;;7.15;;
58083;SDS011;43882;51.550;11.858;2023-07-22T06:29:07;18.10;;;6.53;;
58083;SDS011;43882;51.550;11.858;2023-07-22T06:31:33;19.13;;;7.43;;
58083;SDS011;43882;51.550;11.858;2023-07-22T06:33:59;17.52;;;6.15;;
58083;SDS011;43882;51.550;11.858;2023-07-22T06:36:25;19.55;;;6.30;;
58083;SDS011;43882;51.550;11.858;2023-07-22T06:38:52;18.08;;;5.97;;
58083;SDS011;43882;51.550;11.858;2023-07-22T06:41:19;18.55;;;6.35;;
58083;SDS011;43882;51.550;11.858;2023-07-22T06:43:45;19.13;;;6.50;;
58083;SDS011;43882;51.550;11.858;2023-07-22T06:46:11;20.08;;;7.00;;
58083;SDS011;43882;51.550;11.858;2023-07-22T06:48:38;18.52;;;6.68;;
58083;SDS011;43882;51.550;11.858;2023-07-22T06:51:04;18.05;;;6.22;;
58083;SDS011;43882;51.550;11.858;2023-07-22T06:53:30;17.75;;;6.10;;
58083;SDS011;43882;51.550;11.858;2023-07-22T06:55:56;17.90;;;5.60;;
58083;SDS011;43882;51.550;11.858;2023-07-22T06:58:22;18.33;;;5.40;;
58083;SDS011;43882;51.550;11.858;2023-07-22T07:00:52;17.52;;;5.30;;
58083;SDS011;43882;51.550;11.858;2023-07-22T07:03:18;17.75;;;5.35;;
58083;SDS011;43882;51.550;11.858;2023-07-22T07:05:51;17.35;;;5.22;;
58083;SDS011;43882;51.550;11.858;2023-07-22T07:08:18;16.95;;;5.43;;
58083;SDS011;43882;51.550;11.858;2023-07-22T07:10:44;17.48;;;5.65;;
58083;SDS011;43882;51.550;11.858;2023-07-22T07:13:10;17.27;;;5.28;;
58083;SDS011;43882;51.550;11.858;2023-07-22T07:15:37;16.63;;;4.85;;
58083;SDS011;43882;51.550;11.858;2023-07-22T07:18:03;17.02;;;5.05;;
58083;SDS011;43882;51.550;11.858;2023-07-22T07:20:30;15.95;;;4.93;;
58083;SDS011;43882;51.550;11.858;2023-07-22T07:22:56;17.27;;;5.65;;
58083;SDS011;43882;51.550;11.858;2023-07-22T07:25:22;16.27;;;4.75;;
58083;SDS011;43882;51.550;11.858;2023-07-22T07:27:48;18.95;;;5.45;;
58083;SDS011;43882;51.550;11.858;2023-07-22T07:30:14;16.88;;;5.22;;
58083;SDS011;43882;51.550;11.858;2023-07-22T07:32:40;17.17;;;5.05;;
58083;SDS011;43882;51.550;11.858;2023-07-22T07:35:06;15.63;;;4.88;;
58083;SDS011;43882;51.550;11.858;2023-07-22T07:37:33;16.35;;;4.90;;
58083;SDS011;43882;51.550;11.858;2023-07-22T07:39:59;14.75;;;4.88;;
58083;SDS011;43882;51.550;11.858;2023-07-22T07:42:26;16.10;;;4.70;;
58083;SDS011;43882;51.550;11.858;2023-07-22T07:44:52;16.50;;;5.28;;
58083;SDS011;43882;51.550;11.858;2023-07-22T07:47:18;17.02;;;5.15;;
58083;SDS011;43882;51.550;11.858;2023-07-22T07:49:45;18.08;;;5.22;;
58083;SDS011;43882;51.550;11.858;2023-07-22T07:52:11;16.90;;;5.20;;
58083;SDS011;43882;51.550;11.858;2023-07-22T07:54:37;19.05;;;5.90;;
58083;SDS011;43882;51.550;11.858;2023-07-22T07:57:03;16.98;;;5.60;;
58083;SDS011;43882;51.550;11.858;2023-07-22T07:59:30;18.48;;;5.70;;
58083;SDS011;43882;51.550;11.858;2023-07-22T08:01:56;16.55;;;5.05;;
58083;SDS011;43882;51.550;11.858;2023-07-22T08:04:22;19.20;;;5.78;;
58083;SDS011;43882;51.550;11.858;2023-07-22T08:06:48;15.63;;;5.25;;
58083;SDS011;43882;51.550;11.858;2023-07-22T08:09:14;16.70;;;5.65;;
58083;SDS011;43882;51.550;11.858;2023-07-22T08:11:44;16.90;;;4.80;;
58083;SDS011;43882;51.550;11.858;2023-07-22T08:14:10;17.00;;;5.20;;
58083;SDS011;43882;51.550;11.858;2023-07-22T08:16:36;17.35;;;5.10;;
58083;SDS011;43882;51.550;11.858;2023-07-22T08:19:02;17.70;;;5.30;;
58083;SDS011;43882;51.550;11.858;2023-07-22T08:21:29;16.30;;;5.28;;
58083;SDS011;43882;51.550;11.858;2023-07-22T08:23:55;16.65;;;5.32;;
58083;SDS011;43882;51.550;11.858;2023-07-22T08:26:22;17.05;;;5.93;;
58083;SDS011;43882;51.550;11.858;2023-07-22T08:28:48;16.33;;;5.32;;
58083;SDS011;43882;51.550;11.858;2023-07-22T08:31:14;17.35;;;6.45;;
58083;SDS011;43882;51.550;11.858;2023-07-22T08:33:40;17.85;;;5.40;;
58083;SDS011;43882;51.550;11.858;2023-07-22T08:36:06;17.17;;;5.60;;
58083;SDS011;43882;51.550;11.858;2023-07-22T08:38:33;16.60;;;5.35;;
58083;SDS011;43882;51.550;11.858;2023-07-22T08:40:59;16.42;;;5.10;;
58083;SDS011;43882;51.550;11.858;2023-07-22T08:43:25;15.60;;;4.80;;
58083;SDS011;43882;51.550;11.858;2023-07-22T08:45:53;16.52;;;5.90;;
58083;SDS011;43882;51.550;11.858;2023-07-22T08:48:21;17.45;;;5.63;;
58083;SDS011;43882;51.550;11.858;2023-07-22T08:50:53;16.88;;;5.57;;
58083;SDS011;43882;51.550;11.858;2023-07-22T08:53:31;16.15;;;5.35;;
58083;SDS011;43882;51.550;11.858;2023-07-22T08:56:02;17.30;;;5.10;;
58083;SDS011;43882;51.550;11.858;2023-07-22T08:58:28;17.52;;;4.90;;
58083;SDS011;43882;51.550;11.858;2023-07-22T09:00:55;17.90;;;5.38;;
58083;SDS011;43882;51.550;11.858;2023-07-22T09:03:21;15.98;;;4.93;;
58083;SDS011;43882;51.550;11.858;2023-07-22T09:05:48;16.73;;;5.97;;
58083;SDS011;43882;51.550;11.858;2023-07-22T09:08:14;16.40;;;5.53;;
58083;SDS011;43882;51.550;11.858;2023-07-22T09:10:42;17.35;;;5.72;;
58083;SDS011;43882;51.550;11.858;2023-07-22T09:13:08;14.82;;;4.78;;
58083;SDS011;43882;51.550;11.858;2023-07-22T09:15:35;18.52;;;5.25;;
58083;SDS011;43882;51.550;11.858;2023-07-22T09:18:02;17.65;;;5.25;;
58083;SDS011;43882;51.550;11.858;2023-07-22T09:20:29;15.85;;;5.50;;
58083;SDS011;43882;51.550;11.858;2023-07-22T09:22:55;18.10;;;5.38;;
58083;SDS011;43882;51.550;11.858;2023-07-22T09:25:22;14.93;;;5.15;;
58083;SDS011;43882;51.550;11.858;2023-07-22T09:27:50;18.23;;;5.63;;
58083;SDS011;43882;51.550;11.858;2023-07-22T09:30:36;16.13;;;5.05;;
58083;SDS011;43882;51.550;11.858;2023-07-22T09:33:07;16.75;;;4.65;;
58083;SDS011;43882;51.550;11.858;2023-07-22T09:35:54;16.13;;;4.22;;
58083;SDS011;43882;51.550;11.858;2023-07-22T09:38:24;15.07;;;4.90;;
58083;SDS011;43882;51.550;11.858;2023-07-22T09:40:50;16.13;;;5.07;;
58083;SDS011;43882;51.550;11.858;2023-07-22T09:43:17;15.98;;;4.65;;
58083;SDS011;43882;51.550;11.858;2023-07-22T09:45:46;15.35;;;4.50;;
58083;SDS011;43882;51.550;11.858;2023-07-22T09:48:13;15.98;;;4.85;;
58083;SDS011;43882;51.550;11.858;2023-07-22T09:50:39;15.45;;;4.90;;
58083;SDS011;43882;51.550;11.858;2023-07-22T09:53:05;14.50;;;4.30;;
58083;SDS011;43882;51.550;11.858;2023-07-22T09:55:32;14.13;;;4.30;;
58083;SDS011;43882;51.550;11.858;2023-07-22T09:58:01;13.93;;;4.30;;
58083;SDS011;43882;51.550;11.858;2023-07-22T10:00:28;13.63;;;4.05;;
58083;SDS011;43882;51.550;11.858;2023-07-22T10:02:59;15.15;;;4.30;;
58083;SDS011;43882;51.550;11.858;2023-07-22T10:05:26;14.00;;;4.40;;
58083;SDS011;43882;51.550;11.858;2023-07-22T10:07:55;14.63;;;3.67;;
58083;SDS011;43882;51.550;11.858;2023-07-22T10:10:32;14.32;;;3.58;;
58083;SDS011;43882;51.550;11.858;2023-07-22T10:12:59;15.10;;;4.10;;
58083;SDS011;43882;51.550;11.858;2023-07-22T10:15:28;13.95;;;3.80;;
58083;SDS011;43882;51.550;11.858;2023-07-22T10:17:55;14.75;;;4.35;;
58083;SDS011;43882;51.550;11.858;2023-07-22T10:20:22;13.90;;;4.00;;
58083;SDS011;43882;51.550;11.858;2023-07-22T10:22:49;14.05;;;4.10;;
58083;SDS011;43882;51.550;11.858;2023-07-22T10:25:17;19.15;;;4.53;;
58083;SDS011;43882;51.550;11.858;2023-07-22T10:27:44;14.00;;;4.00;;
58083;SDS011;43882;51.550;11.858;2023-07-22T10:30:12;13.93;;;3.92;;
58083;SDS011;43882;51.550;11.858;2023-07-22T10:32:40;14.48;;;3.70;;
58083;SDS011;43882;51.550;11.858;2023-07-22T10:35:09;14.55;;;3.95;;
58083;SDS011;43882;51.550;11.858;2023-07-22T10:37:37;14.73;;;4.22;;
58083;SDS011;43882;51.550;11.858;2023-07-22T10:40:19;13.80;;;4.10;;
58083;SDS011;43882;51.550;11.858;2023-07-22T10:48:34;16.27;;;5.20;;
58083;SDS011;43882;51.550;11.858;2023-07-22T10:50:49;12.00;;;3.30;;
58083;SDS011;43882;51.550;11.858;2023-07-22T11:09:37;13.00;;;3.65;;
58083;SDS011;43882;51.550;11.858;2023-07-22T11:14:38;14.68;;;3.95;;
58083;SDS011;43882;51.550;11.858;2023-07-22T11:17:17;14.57;;;4.70;;
58083;SDS011;43882;51.550;11.858;2023-07-22T11:19:53;13.25;;;4.00;;
58083;SDS011;43882;51.550;11.858;2023-07-22T11:22:20;15.38;;;3.92;;
58083;SDS011;43882;51.550;11.858;2023-07-22T11:24:46;13.55;;;3.50;;
58083;SDS011;43882;51.550;11.858;2023-07-22T11:27:12;14.70;;;3.97;;
58083;SDS011;43882;51.550;11.858;2023-07-22T11:29:38;13.95;;;4.18;;
58083;SDS011;43882;51.550;11.858;2023-07-22T11:32:05;13.95;;;3.90;;
58083;SDS011;43882;51.550;11.858;2023-07-22T11:34:32;14.55;;;4.10;;
58083;SDS011;43882;51.550;11.858;2023-07-22T11:36:59;14.38;;;4.20;;
58083;SDS011;43882;51.550;11.858;2023-07-22T11:39:26;13.80;;;4.00;;
58083;SDS011;43882;51.550;11.858;2023-07-22T11:41:54;13.63;;;3.78;;
58083;SDS011;43882;51.550;11.858;2023-07-22T11:44:20;14.40;;;4.13;;
58083;SDS011;43882;51.550;11.858;2023-07-22T11:47:04;15.07;;;4.10;;
58083;SDS011;43882;51.550;11.858;2023-07-22T11:49:43;14.38;;;4.00;;
58083;SDS011;43882;51.550;11.858;2023-07-22T11:52:16;14.75;;;4.05;;
58083;SDS011;43882;51.550;11.858;2023-07-22T11:54:43;15.25;;;4.55;;
58083;SDS011;43882;51.550;11.858;2023-07-22T11:59:47;14.57;;;4.28;;
58083;SDS011;43882;51.550;11.858;2023-07-22T12:02:15;14.43;;;4.00;;
58083;SDS011;43882;51.550;11.858;2023-07-22T12:04:42;14.30;;;3.83;;
58083;SDS011;43882;51.550;11.858;2023-07-22T12:07:26;13.82;;;4.05;;
58083;SDS011;43882;51.550;11.858;2023-07-22T12:09:54;15.27;;;4.28;;
58083;SDS011;43882;51.550;11.858;2023-07-22T12:12:21;14.80;;;4.43;;
58083;SDS011;43882;51.550;11.858;2023-07-22T12:15:04;14.60;;;4.20;;
58083;SDS011;43882;51.550;11.858;2023-07-22T12:20:11;15.27;;;4.57;;
58083;SDS011;43882;51.550;11.858;2023-07-22T12:22:37;15.65;;;4.63;;
58083;SDS011;43882;51.550;11.858;2023-07-22T12:25:03;14.98;;;4.47;;
58083;SDS011;43882;51.550;11.858;2023-07-22T12:27:31;14.57;;;4.60;;
58083;SDS011;43882;51.550;11.858;2023-07-22T12:29:57;14.38;;;4.32;;
58083;SDS011;43882;51.550;11.858;2023-07-22T12:32:23;13.80;;;4.13;;
58083;SDS011;43882;51.550;11.858;2023-07-22T12:34:49;16.80;;;4.20;;
58083;SDS011;43882;51.550;11.858;2023-07-22T12:37:15;14.90;;;4.53;;
58083;SDS011;43882;51.550;11.858;2023-07-22T12:39:41;14.60;;;4.40;;
58083;SDS011;43882;51.550;11.858;2023-07-22T12:42:07;15.02;;;4.97;;
58083;SDS011;43882;51.550;11.858;2023-07-22T12:44:34;15.68;;;4.68;;
58083;SDS011;43882;51.550;11.858;2023-07-22T12:47:00;14.50;;;4.80;;
58083;SDS011;43882;51.550;11.858;2023-07-22T12:49:26;15.05;;;4.38;;
58083;SDS011;43882;51.550;11.858;2023-07-22T12:51:52;15.10;;;4.80;;
58083;SDS011;43882;51.550;11.858;2023-07-22T12:54:18;14.43;;;4.63;;
58083;SDS011;43882;51.550;11.858;2023-07-22T12:56:44;14.60;;;4.28;;
58083;SDS011;43882;51.550;11.858;2023-07-22T12:59:10;14.82;;;4.35;;
58083;SDS011;43882;51.550;11.858;2023-07-22T13:01:36;14.93;;;4.47;;
58083;SDS011;43882;51.550;11.858;2023-07-22T13:04:06;14.90;;;4.38;;
58083;SDS011;43882;51.550;11.858;2023-07-22T13:06:32;14.70;;;4.22;;
58083;SDS011;43882;51.550;11.858;2023-07-22T13:08:58;15.90;;;4.43;;
58083;SDS011;43882;51.550;11.858;2023-07-22T13:11:24;15.55;;;4.28;;
58083;SDS011;43882;51.550;11.858;2023-07-22T13:13:50;14.18;;;4.40;;
58083;SDS011;43882;51.550;11.858;2023-07-22T13:16:16;14.80;;;4.45;;
58083;SDS011;43882;51.550;11.858;2023-07-22T13:18:42;14.60;;;4.20;;
58083;SDS011;43882;51.550;11.858;2023-07-22T13:21:09;16.45;;;4.35;;
58083;SDS011;43882;51.550;11.858;2023-07-22T13:23:35;14.30;;;4.20;;
58083;SDS011;43882;51.550;11.858;2023-07-22T13:26:01;14.70;;;4.15;;
58083;SDS011;43882;51.550;11.858;2023-07-22T13:28:27;15.35;;;4.60;;
58083;SDS011;43882;51.550;11.858;2023-07-22T13:30:53;14.63;;;4.53;;
58083;SDS011;43882;51.550;11.858;2023-07-22T13:33:19;14.57;;;4.57;;
58083;SDS011;43882;51.550;11.858;2023-07-22T13:35:45;14.43;;;4.25;;
58083;SDS011;43882;51.550;11.858;2023-07-22T13:38:11;14.52;;;4.38;;
58083;SDS011;43882;51.550;11.858;2023-07-22T13:40:37;15.30;;;4.18;;
58083;SDS011;43882;51.550;11.858;2023-07-22T13:43:03;14.20;;;4.20;;
58083;SDS011;43882;51.550;11.858;2023-07-22T13:45:29;15.85;;;4.20;;
58083;SDS011;43882;51.550;11.858;2023-07-22T13:47:57;16.52;;;4.68;;
58083;SDS011;43882;51.550;11.858;2023-07-22T13:50:23;15.15;;;4.40;;
58083;SDS011;43882;51.550;11.858;2023-07-22T13:52:49;15.82;;;4.85;;
58083;SDS011;43882;51.550;11.858;2023-07-22T13:55:16;14.32;;;4.15;;
58083;SDS011;43882;51.550;11.858;2023-07-22T13:57:42;14.52;;;4.45;;
58083;SDS011;43882;51.550;11.858;2023-07-22T14:00:08;14.75;;;4.38;;
58083;SDS011;43882;51.550;11.858;2023-07-22T14:02:35;15.65;;;4.65;;
58083;SDS011;43882;51.550;11.858;2023-07-22T14:05:02;18.27;;;4.13;;
58083;SDS011;43882;51.550;11.858;2023-07-22T14:07:29;15.77;;;4.32;;
58083;SDS011;43882;51.550;11.858;2023-07-22T14:09:55;13.60;;;3.90;;
58083;SDS011;43882;51.550;11.858;2023-07-22T14:12:21;14.73;;;4.40;;
58083;SDS011;43882;51.550;11.858;2023-07-22T14:14:47;15.15;;;4.47;;
58083;SDS011;43882;51.550;11.858;2023-07-22T14:17:13;14.90;;;4.38;;
58083;SDS011;43882;51.550;11.858;2023-07-22T14:19:39;12.70;;;3.90;;
58083;SDS011;43882;51.550;11.858;2023-07-22T14:22:06;16.05;;;4.28;;
58083;SDS011;43882;51.550;11.858;2023-07-22T14:24:33;13.98;;;3.85;;
58083;SDS011;43882;51.550;11.858;2023-07-22T14:26:59;14.60;;;4.20;;
58083;SDS011;43882;51.550;11.858;2023-07-22T14:29:26;14.57;;;4.00;;
58083;SDS011;43882;51.550;11.858;2023-07-22T14:31:52;14.35;;;4.20;;
58083;SDS011;43882;51.550;11.858;2023-07-22T14:34:19;14.35;;;4.00;;
58083;SDS011;43882;51.550;11.858;2023-07-22T14:36:45;14.05;;;3.90;;
58083;SDS011;43882;51.550;11.858;2023-07-22T14:39:11;12.65;;;3.53;;
58083;SDS011;43882;51.550;11.858;2023-07-22T14:41:40;15.13;;;4.15;;
58083;SDS011;43882;51.550;11.858;2023-07-22T14:44:09;14.48;;;3.90;;
58083;SDS011;43882;51.550;11.858;2023-07-22T14:46:35;13.63;;;3.90;;